SWA82B KBNA-KPBI
Flight info
| Callsign | SWA82B |
|---|---|
| Flight time | N/A |
| Altitude | 37000 |
| Route | FLAME4 GENDE ACORI VUUDU1 |
| Aircraft | B738/M-SDE2E3FGHIRWXY/LB1 |
Departure
| Time | 2026-04-30 14:28 |
|---|---|
| Airport | Nashville International Airport (KBNA) |
Arrival
| Time | N/A |
|---|---|
| Airport | Palm Beach International Airport (KPBI) |
| Time | Latitude | Longitude | Altitude | Speed | Heading |
|---|---|---|---|---|---|
| 2026-04-30 14:18 | 36.12824 | -86.67097 | 571 ft | 2 kts | 41° |
| 2026-04-30 14:19 | 36.12781 | -86.67115 | 569 ft | 4 kts | 334° |
| 2026-04-30 14:19 | 36.12769 | -86.67106 | 568 ft | 0 kts | 310° |
| 2026-04-30 14:21 | 36.12788 | -86.67133 | 573 ft | 8 kts | 310° |
| 2026-04-30 14:22 | 36.12837 | -86.67199 | 571 ft | 12 kts | 313° |
| 2026-04-30 14:22 | 36.12758 | -86.67384 | 573 ft | 16 kts | 223° |
| 2026-04-30 14:22 | 36.12664 | -86.67360 | 576 ft | 16 kts | 135° |
| 2026-04-30 14:23 | 36.12486 | -86.67131 | 574 ft | 19 kts | 133° |
| 2026-04-30 14:23 | 36.12311 | -86.66894 | 577 ft | 19 kts | 122° |
| 2026-04-30 14:24 | 36.12225 | -86.66602 | 570 ft | 17 kts | 107° |
| 2026-04-30 14:24 | 36.12126 | -86.66568 | 573 ft | 17 kts | 198° |
| 2026-04-30 14:25 | 36.11911 | -86.66653 | 578 ft | 16 kts | 198° |
| 2026-04-30 14:25 | 36.11711 | -86.66735 | 585 ft | 16 kts | 198° |
| 2026-04-30 14:26 | 36.11465 | -86.66834 | 591 ft | 16 kts | 198° |
| 2026-04-30 14:26 | 36.11381 | -86.66782 | 591 ft | 16 kts | 111° |
| 2026-04-30 14:26 | 36.11413 | -86.66713 | 590 ft | 0 kts | 19° |
| 2026-04-30 14:27 | 36.11416 | -86.66712 | 590 ft | 4 kts | 18° |
| 2026-04-30 14:27 | 36.11665 | -86.66611 | 587 ft | 74 kts | 18° |
| 2026-04-30 14:27 | 36.12360 | -86.66335 | 567 ft | 136 kts | 18° |
| 2026-04-30 14:28 | 36.14404 | -86.65534 | 1760 ft | 159 kts | 25° |
| 2026-04-30 14:28 | 36.15236 | -86.64633 | 2478 ft | 165 kts | 44° |
| 2026-04-30 14:28 | 36.16113 | -86.63534 | 2777 ft | 194 kts | 43° |
| 2026-04-30 14:28 | 36.17128 | -86.62265 | 3128 ft | 219 kts | 44° |
| 2026-04-30 14:29 | 36.19467 | -86.59314 | 4488 ft | 247 kts | 43° |
| 2026-04-30 14:29 | 36.21490 | -86.56670 | 5839 ft | 265 kts | 52° |
| 2026-04-30 14:30 | 36.21213 | -86.48767 | 8471 ft | 304 kts | 107° |
| 2026-04-30 14:31 | 36.18982 | -86.44284 | 9995 ft | 314 kts | 150° |
| 2026-04-30 14:31 | 36.14712 | -86.43126 | 10748 ft | 337 kts | 187° |
| 2026-04-30 14:31 | 36.12304 | -86.43257 | 11125 ft | 352 kts | 188° |
| 2026-04-30 14:32 | 36.07352 | -86.43570 | 12600 ft | 362 kts | 187° |
| 2026-04-30 14:32 | 36.04815 | -86.43709 | 13374 ft | 368 kts | 187° |
| 2026-04-30 14:32 | 36.02236 | -86.43838 | 14149 ft | 372 kts | 187° |
| 2026-04-30 14:33 | 35.99631 | -86.43960 | 14892 ft | 376 kts | 188° |
| 2026-04-30 14:33 | 35.94364 | -86.44202 | 16444 ft | 382 kts | 188° |
| 2026-04-30 14:33 | 35.91722 | -86.44477 | 17186 ft | 378 kts | 201° |
| 2026-04-30 14:34 | 35.89340 | -86.45688 | 17967 ft | 364 kts | 220° |
| 2026-04-30 14:34 | 35.87283 | -86.47490 | 18753 ft | 361 kts | 224° |
| 2026-04-30 14:34 | 35.85305 | -86.49341 | 19466 ft | 362 kts | 225° |
| 2026-04-30 14:34 | 35.83304 | -86.51235 | 20176 ft | 363 kts | 225° |
| 2026-04-30 14:35 | 35.79930 | -86.54404 | 21361 ft | 365 kts | 225° |
| 2026-04-30 14:35 | 35.77236 | -86.56907 | 22253 ft | 368 kts | 225° |
| 2026-04-30 14:35 | 35.75175 | -86.58809 | 22907 ft | 370 kts | 225° |
| 2026-04-30 14:36 | 35.73105 | -86.60714 | 23549 ft | 372 kts | 225° |
| 2026-04-30 14:36 | 35.71021 | -86.62628 | 24097 ft | 374 kts | 226° |
| 2026-04-30 14:36 | 35.68959 | -86.64519 | 24595 ft | 374 kts | 226° |
| 2026-04-30 14:36 | 35.66867 | -86.66433 | 25117 ft | 378 kts | 225° |
| 2026-04-30 14:37 | 35.64736 | -86.68344 | 25563 ft | 379 kts | 227° |
| 2026-04-30 14:37 | 35.62622 | -86.70299 | 26026 ft | 381 kts | 227° |
| 2026-04-30 14:37 | 35.60498 | -86.72262 | 26522 ft | 383 kts | 227° |
| 2026-04-30 14:37 | 35.58359 | -86.74226 | 26970 ft | 385 kts | 227° |
| 2026-04-30 14:38 | 35.56144 | -86.76138 | 27388 ft | 398 kts | 220° |
| 2026-04-30 14:38 | 35.53508 | -86.77478 | 27810 ft | 423 kts | 207° |
| 2026-04-30 14:38 | 35.50545 | -86.78022 | 28224 ft | 444 kts | 197° |
| 2026-04-30 14:38 | 35.47435 | -86.78255 | 28601 ft | 450 kts | 196° |
| 2026-04-30 14:39 | 35.44275 | -86.78421 | 28893 ft | 455 kts | 195° |
| 2026-04-30 14:39 | 35.41098 | -86.78571 | 29323 ft | 456 kts | 196° |
| 2026-04-30 14:39 | 35.37909 | -86.78733 | 29706 ft | 458 kts | 197° |
| 2026-04-30 14:40 | 35.31539 | -86.79116 | 30287 ft | 464 kts | 197° |
| 2026-04-30 14:40 | 35.28306 | -86.79328 | 30572 ft | 466 kts | 197° |
| 2026-04-30 14:40 | 35.25056 | -86.79545 | 30879 ft | 468 kts | 198° |
| 2026-04-30 14:40 | 35.21798 | -86.79763 | 31250 ft | 467 kts | 198° |
| 2026-04-30 14:41 | 35.18549 | -86.79979 | 31571 ft | 467 kts | 198° |
| 2026-04-30 14:41 | 35.15294 | -86.80195 | 31935 ft | 466 kts | 198° |
| 2026-04-30 14:41 | 35.12049 | -86.80412 | 32293 ft | 466 kts | 198° |
| 2026-04-30 14:41 | 35.08855 | -86.80625 | 32642 ft | 466 kts | 198° |
| 2026-04-30 14:42 | 35.05608 | -86.80842 | 32987 ft | 466 kts | 199° |
| 2026-04-30 14:42 | 35.02347 | -86.81060 | 33307 ft | 467 kts | 199° |
| 2026-04-30 14:42 | 34.99094 | -86.81278 | 33607 ft | 468 kts | 199° |
| 2026-04-30 14:42 | 34.95839 | -86.81495 | 33936 ft | 467 kts | 199° |
| 2026-04-30 14:43 | 34.92594 | -86.81710 | 34204 ft | 467 kts | 199° |
| 2026-04-30 14:43 | 34.89395 | -86.81921 | 34500 ft | 466 kts | 199° |
| 2026-04-30 14:43 | 34.86148 | -86.82137 | 34721 ft | 466 kts | 199° |
| 2026-04-30 14:43 | 34.82907 | -86.82354 | 34934 ft | 467 kts | 199° |
| 2026-04-30 14:44 | 34.79589 | -86.82293 | 35126 ft | 494 kts | 185° |
| 2026-04-30 14:44 | 34.76168 | -86.81348 | 35405 ft | 508 kts | 179° |
| 2026-04-30 14:44 | 34.72752 | -86.80194 | 35677 ft | 510 kts | 177° |
| 2026-04-30 14:44 | 34.69383 | -86.78992 | 35900 ft | 511 kts | 177° |
| 2026-04-30 14:45 | 34.65960 | -86.77778 | 36045 ft | 509 kts | 179° |
| 2026-04-30 14:45 | 34.62535 | -86.76706 | 36214 ft | 511 kts | 176° |
| 2026-04-30 14:45 | 34.59112 | -86.75520 | 36476 ft | 510 kts | 176° |
| 2026-04-30 14:45 | 34.55699 | -86.74394 | 36720 ft | 511 kts | 176° |
| 2026-04-30 14:46 | 34.52283 | -86.73138 | 36897 ft | 513 kts | 176° |
| 2026-04-30 14:46 | 34.48850 | -86.71928 | 37027 ft | 513 kts | 177° |
| 2026-04-30 14:46 | 34.43105 | -86.70048 | 36995 ft | 515 kts | 178° |
| 2026-04-30 14:47 | 34.35081 | -86.67483 | 37035 ft | 511 kts | 177° |
| 2026-04-30 14:47 | 34.28229 | -86.65267 | 37038 ft | 508 kts | 177° |
| 2026-04-30 14:48 | 34.21416 | -86.63049 | 37043 ft | 505 kts | 177° |
| 2026-04-30 14:48 | 34.15768 | -86.61209 | 36970 ft | 504 kts | 177° |
| 2026-04-30 14:49 | 34.07923 | -86.58657 | 37022 ft | 501 kts | 177° |
| 2026-04-30 14:49 | 34.02285 | -86.56831 | 37015 ft | 501 kts | 177° |
| 2026-04-30 14:50 | 33.92174 | -86.53564 | 37014 ft | 505 kts | 176° |
| 2026-04-30 14:51 | 33.81954 | -86.50263 | 37001 ft | 508 kts | 176° |
| 2026-04-30 14:52 | 33.71718 | -86.46964 | 37004 ft | 510 kts | 176° |
| 2026-04-30 14:52 | 33.61417 | -86.43650 | 36971 ft | 510 kts | 176° |
| 2026-04-30 14:53 | 33.51197 | -86.40370 | 37008 ft | 507 kts | 176° |
| 2026-04-30 14:54 | 33.37586 | -86.36018 | 36997 ft | 504 kts | 176° |
| 2026-04-30 14:55 | 33.27450 | -86.32786 | 37018 ft | 501 kts | 176° |
| 2026-04-30 14:56 | 33.13995 | -86.28511 | 37024 ft | 500 kts | 176° |
| 2026-04-30 14:57 | 33.03915 | -86.25318 | 36980 ft | 502 kts | 176° |
| 2026-04-30 14:58 | 32.90344 | -86.21029 | 36990 ft | 506 kts | 176° |
| 2026-04-30 14:58 | 32.80146 | -86.17814 | 36963 ft | 508 kts | 175° |
| 2026-04-30 15:00 | 32.62956 | -86.12411 | 36958 ft | 513 kts | 175° |
| 2026-04-30 15:01 | 32.49144 | -86.08084 | 36943 ft | 515 kts | 175° |
| 2026-04-30 15:01 | 32.38721 | -86.04829 | 36955 ft | 517 kts | 175° |
| 2026-04-30 15:02 | 32.31746 | -86.02656 | 36961 ft | 518 kts | 175° |
| 2026-04-30 15:03 | 32.14280 | -85.97220 | 36958 ft | 513 kts | 174° |
| 2026-04-30 15:04 | 31.97063 | -85.91895 | 36988 ft | 512 kts | 174° |
| 2026-04-30 15:06 | 31.79698 | -85.86219 | 36969 ft | 528 kts | 163° |
| 2026-04-30 15:06 | 31.73320 | -85.81730 | 36972 ft | 542 kts | 143° |
| 2026-04-30 15:07 | 31.67749 | -85.75730 | 36977 ft | 543 kts | 139° |
| 2026-04-30 15:08 | 31.56804 | -85.63591 | 36964 ft | 541 kts | 140° |
| 2026-04-30 15:09 | 31.42990 | -85.48702 | 36967 ft | 538 kts | 141° |
| 2026-04-30 15:10 | 31.32033 | -85.36938 | 37010 ft | 534 kts | 140° |
| 2026-04-30 15:11 | 31.15622 | -85.19383 | 36964 ft | 531 kts | 141° |
| 2026-04-30 15:13 | 31.02059 | -85.04940 | 36956 ft | 527 kts | 141° |
| 2026-04-30 15:14 | 30.83150 | -84.84901 | 36947 ft | 523 kts | 141° |
| 2026-04-30 15:17 | 30.58969 | -84.59436 | 36956 ft | 520 kts | 141° |
| 2026-04-30 15:19 | 30.37337 | -84.36808 | 36961 ft | 525 kts | 141° |